Time;durP1;ratioP1;P1;durP2;ratioP2;P2;SDS_P1;SDS_P2;PMS_P1;PMS_P2;Temp;Humidity;BMP_temperature;BMP_pressure;BME280_temperature;BME280_humidity;BME280_pressure;Samples;Min_cycle;Max_cycle;Signal;HPM_P1;HPM_P2
2022/07/04 00:01:06;;;;;;;2.67;0.65;;;;;20.70;101877.00;;;;5057604;28;20198;-80
2022/07/04 00:03:34;;;;;;;2.72;0.82;;;;;20.70;101879.00;;;;5056065;28;20199;-80
2022/07/04 00:06:01;;;;;;;1.67;0.70;;;;;20.60;101877.00;;;;5065945;28;20200;-80
2022/07/04 00:08:28;;;;;;;1.35;0.60;;;;;20.60;101879.00;;;;5064773;28;20190;-80
2022/07/04 00:10:56;;;;;;;2.00;0.60;;;;;20.60;101872.00;;;;5065079;28;20188;-80
2022/07/04 00:13:23;;;;;;;0.70;0.70;;;;;20.60;101869.00;;;;5050951;28;20200;-80
2022/07/04 00:15:52;;;;;;;1.75;0.77;;;;;20.50;101871.00;;;;5064958;28;20202;-81
2022/07/04 00:18:19;;;;;;;1.10;0.70;;;;;20.50;101874.00;;;;5050473;28;20184;-80
2022/07/04 00:20:46;;;;;;;2.20;1.02;;;;;20.50;101873.00;;;;5051043;28;20195;-80
2022/07/04 00:23:13;;;;;;;2.45;0.90;;;;;20.50;101870.00;;;;5050573;28;20251;-80
2022/07/04 00:25:41;;;;;;;0.65;0.50;;;;;20.40;101865.00;;;;5053206;28;20199;-80
2022/07/04 00:28:08;;;;;;;0.70;0.60;;;;;20.40;101860.00;;;;5063732;28;20764;-80
2022/07/04 00:30:35;;;;;;;2.53;0.73;;;;;20.40;101869.00;;;;5049823;28;20195;-81
2022/07/04 00:33:04;;;;;;;3.72;1.00;;;;;20.40;101858.00;;;;5056950;28;20774;-80
2022/07/04 00:35:31;;;;;;;1.25;0.80;;;;;20.40;101860.00;;;;5068164;28;20665;-81
2022/07/04 00:37:59;;;;;;;0.85;0.60;;;;;20.30;101861.00;;;;5067053;28;20234;-80
2022/07/04 00:40:26;;;;;;;0.98;0.70;;;;;20.30;101864.00;;;;5054909;28;20191;-81
2022/07/04 00:42:53;;;;;;;4.68;1.17;;;;;20.30;101859.00;;;;5064155;28;20226;-80
2022/07/04 00:45:20;;;;;;;1.25;0.57;;;;;20.30;101864.00;;;;5067780;28;20199;-80
2022/07/04 00:47:48;;;;;;;1.33;0.70;;;;;20.20;101862.00;;;;5060243;28;20203;-80
2022/07/04 00:50:16;;;;;;;1.05;0.57;;;;;20.20;101847.00;;;;5066065;28;20199;-80
2022/07/04 00:52:44;;;;;;;1.23;0.75;;;;;20.20;101853.00;;;;5069913;28;20596;-80
2022/07/04 00:55:11;;;;;;;1.20;0.80;;;;;20.20;101849.00;;;;5064147;28;20230;-80
2022/07/04 00:57:39;;;;;;;1.90;0.70;;;;;20.10;101851.00;;;;5068078;28;20206;-81
2022/07/04 01:00:08;;;;;;;1.23;0.88;;;;;20.10;101848.00;;;;5059232;28;20211;-81
2022/07/04 01:02:35;;;;;;;1.27;0.90;;;;;20.10;101846.00;;;;5060338;28;20219;-80
2022/07/04 01:05:02;;;;;;;3.35;1.10;;;;;20.10;101842.00;;;;5053827;28;20222;-80
2022/07/04 01:07:31;;;;;;;0.90;0.65;;;;;20.00;101846.00;;;;5051356;28;20215;-80
2022/07/04 01:09:59;;;;;;;1.23;0.80;;;;;20.00;101844.00;;;;5053774;28;20206;-81
2022/07/04 01:12:27;;;;;;;1.55;0.90;;;;;20.00;101848.00;;;;5059263;28;20196;-80
2022/07/04 01:14:55;;;;;;;1.42;0.90;;;;;20.00;101847.00;;;;5049981;28;20693;-80
2022/07/04 01:17:22;;;;;;;3.20;1.13;;;;;19.90;101849.00;;;;5057252;28;20207;-80
2022/07/04 01:19:49;;;;;;;2.72;1.23;;;;;19.90;101849.00;;;;5047924;28;20199;-80
2022/07/04 01:22:19;;;;;;;1.25;1.08;;;;;19.90;101841.00;;;;5047750;28;20231;-80
2022/07/04 01:24:46;;;;;;;1.83;1.20;;;;;19.90;101837.00;;;;5050161;28;20210;-80
2022/07/04 01:27:14;;;;;;;1.77;1.33;;;;;19.90;101832.00;;;;5058462;28;20281;-81
2022/07/04 01:29:42;;;;;;;3.58;1.15;;;;;19.80;101832.00;;;;5052721;28;20210;-80
2022/07/04 01:32:10;;;;;;;1.95;1.20;;;;;19.80;101824.00;;;;5052468;28;20203;-80
2022/07/04 01:34:38;;;;;;;2.97;1.20;;;;;19.80;101827.00;;;;5050592;28;20697;-80
2022/07/04 01:37:06;;;;;;;2.80;0.98;;;;;19.80;101836.00;;;;5054367;28;20634;-80
2022/07/04 01:39:35;;;;;;;2.15;1.17;;;;;19.70;101823.00;;;;5057588;28;20684;-80
2022/07/04 01:42:03;;;;;;;1.40;0.98;;;;;19.70;101829.00;;;;5057571;28;20696;-80
2022/07/04 01:44:30;;;;;;;1.00;0.82;;;;;19.70;101819.00;;;;5055969;28;20195;-80
2022/07/04 01:46:57;;;;;;;0.73;0.70;;;;;19.70;101823.00;;;;5048409;28;20192;-80
2022/07/04 01:49:24;;;;;;;1.88;0.93;;;;;19.70;101824.00;;;;5059530;28;20199;-81
2022/07/04 01:51:52;;;;;;;1.67;1.30;;;;;19.70;101822.00;;;;5062004;28;20210;-80
2022/07/04 01:54:20;;;;;;;1.00;0.90;;;;;19.70;101820.00;;;;5060665;28;20228;-79
2022/07/04 01:56:48;;;;;;;2.92;0.90;;;;;19.60;101818.00;;;;5050312;28;20677;-80
2022/07/04 01:59:16;;;;;;;1.83;0.90;;;;;19.60;101817.00;;;;5060738;28;20198;-80
2022/07/04 02:01:42;;;;;;;1.00;0.88;;;;;19.60;101825.00;;;;5058646;28;20203;-80
2022/07/04 02:04:10;;;;;;;1.75;0.90;;;;;19.60;101824.00;;;;5050709;28;20305;-80
2022/07/04 02:06:37;;;;;;;1.77;1.15;;;;;19.50;101823.00;;;;5048131;28;20199;-80
2022/07/04 02:09:16;;;;;;;1.13;0.88;;;;;19.50;101822.00;;;;5050870;28;20566;-80
2022/07/04 02:14:32;;;;;;;2.25;1.10;;;;;19.50;101818.00;;;;5048631;28;20565;-80
2022/07/04 02:16:59;;;;;;;2.10;1.20;;;;;19.50;101816.00;;;;5051034;28;20684;-80
2022/07/04 02:19:27;;;;;;;1.90;1.15;;;;;19.40;101819.00;;;;5049855;28;20665;-80
2022/07/04 02:21:54;;;;;;;2.35;1.00;;;;;19.40;101819.00;;;;5049135;28;20650;-80
2022/07/04 02:24:22;;;;;;;1.80;0.70;;;;;19.40;101812.00;;;;5047908;28;20303;-80
2022/07/04 02:26:49;;;;;;;1.10;1.00;;;;;19.40;101815.00;;;;5051676;28;20203;-80
2022/07/04 02:29:17;;;;;;;1.73;1.13;;;;;19.40;101810.00;;;;5048007;28;20392;-80
2022/07/04 02:31:46;;;;;;;1.90;1.10;;;;;19.40;101807.00;;;;5050075;28;20658;-80
2022/07/04 02:34:13;;;;;;;1.75;1.40;;;;;19.40;101823.00;;;;5048017;28;20227;-80
2022/07/04 02:36:41;;;;;;;2.20;1.20;;;;;19.30;101815.00;;;;5055519;28;20196;-80
2022/07/04 02:39:09;;;;;;;2.20;1.35;;;;;19.30;101812.00;;;;5048738;28;20196;-80
2022/07/04 02:41:36;;;;;;;2.53;1.65;;;;;19.30;101813.00;;;;5058271;28;20290;-80
2022/07/04 02:44:04;;;;;;;1.33;1.05;;;;;19.30;101810.00;;;;5049089;28;20234;-80
2022/07/04 02:46:32;;;;;;;1.58;1.08;;;;;19.30;101814.00;;;;5052444;28;20857;-80
2022/07/04 02:49:01;;;;;;;2.22;1.85;;;;;19.30;101819.00;;;;5050477;28;20283;-80
2022/07/04 02:51:29;;;;;;;1.48;1.27;;;;;19.30;101814.00;;;;5051518;28;20192;-80
2022/07/04 02:53:56;;;;;;;1.58;1.23;;;;;19.30;101812.00;;;;5054321;28;20232;-80
2022/07/04 02:56:23;;;;;;;1.85;1.20;;;;;19.30;101810.00;;;;5048076;28;20199;-80
2022/07/04 02:58:51;;;;;;;2.40;1.40;;;;;19.30;101811.00;;;;5051496;28;20225;-80
2022/07/04 03:01:19;;;;;;;1.88;1.20;;;;;19.30;101813.00;;;;5063600;28;20205;-80
2022/07/04 03:03:47;;;;;;;1.50;1.40;;;;;19.30;101807.00;;;;5065878;28;20230;-80
2022/07/04 03:06:16;;;;;;;2.95;1.52;;;;;19.20;101812.00;;;;5047396;28;20212;-80
2022/07/04 03:08:44;;;;;;;1.88;1.40;;;;;19.20;101819.00;;;;5047911;28;20208;-79
2022/07/04 03:11:11;;;;;;;2.97;1.73;;;;;19.20;101823.00;;;;5047169;28;20199;-80
2022/07/04 03:13:40;;;;;;;2.25;1.70;;;;;19.20;101819.00;;;;5046435;28;20581;-79
2022/07/04 03:16:08;;;;;;;2.10;1.50;;;;;19.20;101814.00;;;;5046529;28;20316;-80
2022/07/04 03:18:35;;;;;;;1.92;1.52;;;;;19.20;101820.00;;;;5050951;28;20203;-80
2022/07/04 03:21:04;;;;;;;2.75;1.95;;;;;19.20;101822.00;;;;5049265;28;20203;-80
2022/07/04 03:23:33;;;;;;;3.80;1.65;;;;;19.20;101821.00;;;;5054876;28;20215;-80
2022/07/04 03:26:00;;;;;;;2.58;1.77;;;;;19.20;101827.00;;;;5047904;28;20202;-79
2022/07/04 03:28:28;;;;;;;1.90;1.80;;;;;19.20;101828.00;;;;5065345;28;20210;-79
2022/07/04 03:30:56;;;;;;;2.17;1.70;;;;;19.20;101826.00;;;;5051522;28;20210;-80
2022/07/04 03:33:24;;;;;;;2.00;1.60;;;;;19.20;101828.00;;;;5052145;28;20219;-80
2022/07/04 03:35:51;;;;;;;3.15;1.70;;;;;19.20;101832.00;;;;5057033;28;20211;-80
2022/07/04 03:38:18;;;;;;;2.90;1.88;;;;;19.20;101825.00;;;;5063813;28;20195;-79
2022/07/04 03:40:47;;;;;;;2.20;2.00;;;;;19.20;101832.00;;;;5060159;28;20211;-80
2022/07/04 03:43:14;;;;;;;2.85;2.15;;;;;19.20;101832.00;;;;5058925;28;20230;-80
2022/07/04 03:45:42;;;;;;;3.13;2.03;;;;;19.20;101830.00;;;;5052259;28;20721;-80
2022/07/04 03:48:10;;;;;;;3.03;2.20;;;;;19.20;101837.00;;;;5059658;28;20191;-79
2022/07/04 03:50:37;;;;;;;2.53;1.80;;;;;19.20;101841.00;;;;5065078;28;20199;-80
2022/07/04 03:53:08;;;;;;;2.10;1.65;;;;;19.20;101847.00;;;;5063192;28;20199;-80
2022/07/04 03:55:35;;;;;;;2.95;1.85;;;;;19.20;101842.00;;;;5057652;28;20231;-80
2022/07/04 03:58:04;;;;;;;2.22;1.77;;;;;19.20;101844.00;;;;5049235;28;20199;-80
2022/07/04 04:00:31;;;;;;;5.65;3.10;;;;;19.20;101840.00;;;;5051230;28;20195;-80
2022/07/04 04:02:59;;;;;;;3.90;2.20;;;;;19.30;101842.00;;;;5052750;28;20236;-80
2022/07/04 04:05:30;;;;;;;3.78;2.53;;;;;19.30;101848.00;;;;5061766;28;20198;-80
2022/07/04 04:07:59;;;;;;;3.00;2.25;;;;;19.30;101847.00;;;;5054031;28;20203;-80
2022/07/04 04:10:27;;;;;;;4.13;2.25;;;;;19.30;101843.00;;;;5063564;28;20199;-79
2022/07/04 04:12:54;;;;;;;2.75;2.47;;;;;19.40;101847.00;;;;5059568;28;20207;-80
2022/07/04 04:15:23;;;;;;;3.13;2.60;;;;;19.40;101852.00;;;;5052665;28;20198;-80
2022/07/04 04:17:50;;;;;;;2.80;2.50;;;;;19.40;101858.00;;;;5051128;28;20202;-80
2022/07/04 04:20:18;;;;;;;2.88;2.60;;;;;19.40;101859.00;;;;5050223;28;20195;-80
2022/07/04 04:22:45;;;;;;;4.32;2.63;;;;;19.50;101861.00;;;;5061376;28;20203;-80
2022/07/04 04:25:12;;;;;;;5.25;2.80;;;;;19.50;101856.00;;;;5059638;28;20214;-80
2022/07/04 04:27:40;;;;;;;3.33;2.85;;;;;19.60;101855.00;;;;5053850;28;20203;-80
2022/07/04 04:30:08;;;;;;;3.55;3.03;;;;;19.60;101857.00;;;;5057525;28;20203;-79
2022/07/04 04:32:37;;;;;;;3.63;2.85;;;;;19.60;101862.00;;;;5058020;28;20203;-79
2022/07/04 04:35:05;;;;;;;3.28;2.40;;;;;19.70;101861.00;;;;5048311;28;20602;-80
2022/07/04 04:37:32;;;;;;;6.38;3.10;;;;;19.70;101862.00;;;;5048870;28;20207;-80
2022/07/04 04:39:59;;;;;;;3.45;2.85;;;;;19.80;101863.00;;;;5051508;28;20202;-80
2022/07/04 04:42:27;;;;;;;2.63;2.10;;;;;19.80;101854.00;;;;5055559;28;20203;-80
2022/07/04 04:44:54;;;;;;;2.78;2.50;;;;;19.80;101862.00;;;;5066615;28;20227;-80
2022/07/04 04:47:21;;;;;;;2.75;2.42;;;;;19.90;101870.00;;;;5062674;28;20211;-80
2022/07/04 04:49:50;;;;;;;3.00;2.28;;;;;19.90;101861.00;;;;5055513;28;20192;-81
2022/07/04 04:52:17;;;;;;;3.90;2.40;;;;;20.00;101875.00;;;;5057503;28;20210;-81
2022/07/04 04:54:45;;;;;;;3.83;2.47;;;;;20.00;101872.00;;;;5069770;28;20238;-81
2022/07/04 04:57:12;;;;;;;4.13;2.63;;;;;20.10;101871.00;;;;5054783;28;20648;-81
2022/07/04 04:59:39;;;;;;;3.20;2.55;;;;;20.10;101872.00;;;;5068398;28;20767;-80
2022/07/04 05:02:07;;;;;;;3.28;2.42;;;;;20.20;101871.00;;;;5052327;28;20207;-80
2022/07/04 05:04:34;;;;;;;4.22;2.38;;;;;20.20;101865.00;;;;5058822;28;20230;-80
2022/07/04 05:07:03;;;;;;;4.68;2.70;;;;;20.30;101874.00;;;;5060949;28;20976;-81
2022/07/04 05:09:30;;;;;;;2.75;2.55;;;;;20.40;101874.00;;;;5054878;28;20195;-80
2022/07/04 05:11:57;;;;;;;4.30;2.50;;;;;20.40;101870.00;;;;5048031;28;20196;-81
2022/07/04 05:14:25;;;;;;;2.85;2.50;;;;;20.50;101878.00;;;;5057197;28;20202;-80
2022/07/04 05:16:52;;;;;;;4.53;2.80;;;;;20.50;101877.00;;;;5057030;28;20195;-80
2022/07/04 05:19:22;;;;;;;3.70;2.70;;;;;20.60;101878.00;;;;5061608;28;20194;-80
2022/07/04 05:21:50;;;;;;;3.13;2.38;;;;;20.60;101883.00;;;;5061156;28;20202;-80
2022/07/04 05:24:19;;;;;;;5.82;2.90;;;;;20.70;101877.00;;;;5054495;28;20234;-81
2022/07/04 05:26:46;;;;;;;2.75;2.20;;;;;20.80;101880.00;;;;5059101;28;20821;-82
2022/07/04 05:29:13;;;;;;;5.45;2.50;;;;;20.80;101881.00;;;;5049321;28;20203;-82
2022/07/04 05:31:41;;;;;;;6.25;2.42;;;;;20.90;101878.00;;;;5054838;28;20677;-82
2022/07/04 05:34:08;;;;;;;4.70;2.60;;;;;20.90;101885.00;;;;5048839;28;20216;-83
2022/07/04 05:36:35;;;;;;;3.83;2.65;;;;;21.00;101888.00;;;;5057967;28;20199;-85
2022/07/04 05:39:03;;;;;;;4.40;2.33;;;;;21.00;101880.00;;;;5049971;28;20207;-83
2022/07/04 05:41:31;;;;;;;3.70;2.42;;;;;21.00;101879.00;;;;5060740;28;20207;-82
2022/07/04 05:43:59;;;;;;;4.90;2.20;;;;;21.10;101886.00;;;;5049649;28;20231;-80
2022/07/04 05:46:26;;;;;;;4.38;2.30;;;;;21.20;101887.00;;;;5063258;28;20202;-81
2022/07/04 05:48:54;;;;;;;4.05;2.38;;;;;21.30;101890.00;;;;5065451;28;20202;-83
2022/07/04 05:51:21;;;;;;;2.75;2.50;;;;;21.30;101890.00;;;;5049425;28;20745;-82
2022/07/04 05:53:48;;;;;;;2.58;2.00;;;;;21.40;101892.00;;;;5048510;28;20206;-81
2022/07/04 05:56:16;;;;;;;5.00;2.00;;;;;21.50;101897.00;;;;5048178;28;20192;-80
2022/07/04 05:58:44;;;;;;;4.22;2.13;;;;;21.50;101903.00;;;;5049186;28;20203;-80
2022/07/04 06:01:12;;;;;;;2.13;1.65;;;;;21.60;101896.00;;;;5048207;28;20200;-80
2022/07/04 06:03:39;;;;;;;3.42;2.00;;;;;21.70;101904.00;;;;5048607;28;20238;-80
2022/07/04 06:06:07;;;;;;;4.72;1.65;;;;;21.70;101898.00;;;;5048508;28;20607;-80
2022/07/04 06:08:35;;;;;;;2.53;2.00;;;;;21.80;101899.00;;;;5048965;28;20603;-80
2022/07/04 06:11:03;;;;;;;2.90;1.60;;;;;21.80;101893.00;;;;5047782;28;20578;-81
2022/07/04 06:13:30;;;;;;;2.28;1.73;;;;;21.90;101893.00;;;;5054855;28;20207;-80
2022/07/04 06:15:59;;;;;;;5.80;2.03;;;;;21.90;101897.00;;;;5069051;28;20806;-80
2022/07/04 06:18:27;;;;;;;3.92;1.85;;;;;22.00;101885.00;;;;5068962;28;20211;-81
2022/07/04 06:20:54;;;;;;;1.45;1.33;;;;;22.10;101893.00;;;;5067957;28;20665;-80
2022/07/04 06:23:21;;;;;;;5.75;1.90;;;;;22.10;101904.00;;;;5067640;28;20195;-81
2022/07/04 06:25:49;;;;;;;6.38;2.08;;;;;22.20;101898.00;;;;5048512;28;20210;-80
2022/07/04 06:28:17;;;;;;;3.03;1.60;;;;;22.20;101904.00;;;;5048349;28;20391;-80
2022/07/04 06:30:44;;;;;;;3.58;1.80;;;;;22.30;101894.00;;;;5056726;28;20208;-79
2022/07/04 06:33:13;;;;;;;5.82;1.80;;;;;22.40;101881.00;;;;5068859;28;20219;-80
2022/07/04 06:35:45;;;;;;;3.65;1.45;;;;;22.40;101885.00;;;;5056077;28;20203;-80
2022/07/04 06:38:14;;;;;;;3.35;1.63;;;;;22.50;101886.00;;;;5062002;28;20196;-78
2022/07/04 06:40:42;;;;;;;3.17;1.60;;;;;22.60;101887.00;;;;5049567;28;20199;-78
2022/07/04 06:43:09;;;;;;;5.60;1.60;;;;;22.70;101881.00;;;;5049484;28;20591;-78
2022/07/04 06:45:37;;;;;;;2.28;1.80;;;;;22.80;101881.00;;;;5068923;28;20202;-79
2022/07/04 06:48:06;;;;;;;5.68;1.90;;;;;22.90;101882.00;;;;5057079;28;20210;-78
2022/07/04 06:50:35;;;;;;;5.10;1.65;;;;;22.90;101884.00;;;;5048529;28;20208;-77
2022/07/04 06:53:03;;;;;;;3.53;1.77;;;;;23.10;101889.00;;;;5048047;28;20215;-78
2022/07/04 06:55:36;;;;;;;5.50;2.10;;;;;23.20;101887.00;;;;5048272;28;20325;-78
2022/07/04 06:58:03;;;;;;;4.15;1.75;;;;;23.30;101892.00;;;;5048646;28;20184;-77
2022/07/04 07:00:31;;;;;;;3.45;1.42;;;;;23.40;101888.00;;;;5048281;28;20234;-79
2022/07/04 07:02:58;;;;;;;3.63;1.90;;;;;23.40;101877.00;;;;5060207;28;20207;-78
2022/07/04 07:05:26;;;;;;;4.75;1.77;;;;;23.50;101877.00;;;;5059643;28;20218;-78
2022/07/04 07:07:56;;;;;;;5.07;2.20;;;;;23.60;101881.00;;;;5067162;28;20191;-78
2022/07/04 07:10:23;;;;;;;7.90;1.73;;;;;23.70;101880.00;;;;5067056;28;20210;-78
2022/07/04 07:12:51;;;;;;;5.60;2.00;;;;;23.80;101879.00;;;;5066505;28;20545;-77
2022/07/04 07:15:19;;;;;;;3.90;2.38;;;;;23.90;101887.00;;;;5066084;28;20218;-76
2022/07/04 07:17:46;;;;;;;6.07;1.83;;;;;23.90;101890.00;;;;5068075;28;20198;-79
2022/07/04 07:20:14;;;;;;;2.85;1.77;;;;;24.00;101887.00;;;;5058815;28;20192;-78
2022/07/04 07:22:42;;;;;;;3.10;1.80;;;;;24.10;101886.00;;;;5047992;28;20199;-80
2022/07/04 07:25:11;;;;;;;3.58;1.73;;;;;24.20;101887.00;;;;5050894;28;20223;-79
2022/07/04 07:27:40;;;;;;;4.40;1.80;;;;;24.30;101885.00;;;;5047504;28;20191;-80
2022/07/04 07:30:09;;;;;;;3.95;1.77;;;;;24.40;101883.00;;;;5048727;28;20199;-79
2022/07/04 07:32:36;;;;;;;3.88;1.80;;;;;24.50;101884.00;;;;5067599;28;20202;-79
2022/07/04 07:35:04;;;;;;;4.07;1.98;;;;;24.50;101889.00;;;;5067434;28;20215;-79
2022/07/04 07:37:31;;;;;;;2.88;1.80;;;;;24.70;101890.00;;;;5048814;28;21057;-79
2022/07/04 07:39:59;;;;;;;3.33;1.70;;;;;24.80;101898.00;;;;5066049;28;20206;-79
2022/07/04 07:42:27;;;;;;;3.58;2.05;;;;;24.90;101891.00;;;;5046168;28;20204;-79
2022/07/04 07:44:56;;;;;;;4.25;1.42;;;;;25.00;101896.00;;;;5046946;28;20598;-79
2022/07/04 07:47:23;;;;;;;3.83;1.65;;;;;25.20;101904.00;;;;5047064;28;20230;-80
2022/07/04 07:49:50;;;;;;;3.60;1.88;;;;;25.20;101900.00;;;;5047872;28;20195;-79
2022/07/04 07:52:18;;;;;;;3.60;1.50;;;;;25.30;101902.00;;;;5046662;28;20200;-79
2022/07/04 07:54:45;;;;;;;2.45;1.33;;;;;25.30;101905.00;;;;5047208;28;20227;-79
2022/07/04 07:57:13;;;;;;;1.98;1.15;;;;;25.40;101898.00;;;;5046997;28;20203;-79
2022/07/04 07:59:41;;;;;;;2.38;1.20;;;;;25.40;101897.00;;;;5062781;28;20214;-80
2022/07/04 08:02:08;;;;;;;1.55;1.35;;;;;25.50;101903.00;;;;5048577;28;20207;-79
2022/07/04 08:04:35;;;;;;;2.97;1.45;;;;;25.60;101901.00;;;;5047553;28;20231;-79
2022/07/04 08:07:03;;;;;;;3.35;1.23;;;;;25.70;101903.00;;;;5048276;28;20574;-80
2022/07/04 08:09:31;;;;;;;2.47;1.23;;;;;25.80;101907.00;;;;5047956;28;20196;-80
2022/07/04 08:11:59;;;;;;;2.78;1.35;;;;;25.90;101907.00;;;;5047581;28;20204;-79
2022/07/04 08:14:27;;;;;;;3.97;1.30;;;;;25.90;101911.00;;;;5047988;28;20196;-79
2022/07/04 08:16:56;;;;;;;3.30;0.80;;;;;25.90;101915.00;;;;5048156;28;20200;-80
2022/07/04 08:19:25;;;;;;;1.60;1.17;;;;;26.00;101914.00;;;;5052155;28;20206;-80
2022/07/04 08:21:53;;;;;;;5.28;1.50;;;;;26.10;101914.00;;;;5067546;28;20650;-80
2022/07/04 08:24:20;;;;;;;3.20;1.15;;;;;26.20;101920.00;;;;5050956;28;20585;-80
2022/07/04 08:26:48;;;;;;;2.00;1.20;;;;;26.30;101914.00;;;;5050558;28;20210;-79
2022/07/04 08:29:19;;;;;;;2.33;1.30;;;;;26.40;101923.00;;;;5054921;28;20199;-79
2022/07/04 08:31:47;;;;;;;2.80;1.10;;;;;26.40;101918.00;;;;5070709;28;20195;-79
2022/07/04 08:34:16;;;;;;;2.47;1.20;;;;;26.50;101924.00;;;;5070571;28;20223;-78
2022/07/04 08:36:43;;;;;;;3.00;1.30;;;;;26.60;101921.00;;;;5064965;28;20657;-78
2022/07/04 08:39:11;;;;;;;2.38;1.30;;;;;26.60;101927.00;;;;5070887;28;20202;-78
2022/07/04 08:41:40;;;;;;;1.80;1.10;;;;;26.60;101928.00;;;;5071271;28;20220;-78
2022/07/04 08:44:10;;;;;;;1.92;1.00;;;;;26.50;101932.00;;;;5055240;28;20191;-78
2022/07/04 08:46:40;;;;;;;2.17;0.98;;;;;26.50;101933.00;;;;5058228;28;20230;-78
2022/07/04 08:49:18;;;;;;;2.53;1.08;;;;;26.40;101933.00;;;;5070311;28;20213;-78
2022/07/04 08:51:57;;;;;;;2.75;1.42;;;;;26.40;101931.00;;;;5061259;28;20867;-77
2022/07/04 08:59:58;;;;;;;2.03;1.15;;;;;26.30;101935.00;;;;5050456;28;20194;-79
2022/07/04 09:02:28;;;;;;;1.67;1.10;;;;;26.30;101930.00;;;;5049926;28;20662;-79
2022/07/04 09:04:56;;;;;;;2.05;1.15;;;;;26.30;101933.00;;;;5068305;28;20223;-79
2022/07/04 09:07:24;;;;;;;3.88;1.20;;;;;26.40;101925.00;;;;5065845;28;20195;-79
2022/07/04 09:09:52;;;;;;;3.10;1.27;;;;;26.60;101929.00;;;;5051244;28;20187;-79
2022/07/04 09:12:19;;;;;;;7.22;1.80;;;;;26.80;101930.00;;;;5057949;28;20200;-78
2022/07/04 09:14:47;;;;;;;2.63;1.40;;;;;26.90;101923.00;;;;5049486;28;20967;-79
2022/07/04 09:17:14;;;;;;;3.00;1.40;;;;;27.00;101927.00;;;;5049682;28;20200;-79
2022/07/04 09:19:42;;;;;;;4.38;1.13;;;;;27.00;101930.00;;;;5050408;28;20199;-79
2022/07/04 09:22:11;;;;;;;2.03;1.30;;;;;27.10;101938.00;;;;5049884;28;20261;-78
2022/07/04 09:24:52;;;;;;;1.52;1.23;;;;;27.00;101929.00;;;;5049530;28;20236;-79
2022/07/04 09:27:33;;;;;;;2.35;1.15;;;;;27.10;101933.00;;;;5051812;28;20203;-78
2022/07/04 09:30:00;;;;;;;0.85;0.60;;;;;27.10;101929.00;;;;5068830;28;20206;-79
2022/07/04 09:32:46;;;;;;;5.30;1.25;;;;;27.00;101931.00;;;;5069112;28;20750;-78
2022/07/04 09:35:17;;;;;;;3.08;0.98;;;;;27.10;101933.00;;;;5068922;28;20250;-78
2022/07/04 09:37:47;;;;;;;2.22;1.10;;;;;27.10;101935.00;;;;5048563;28;20202;-78
2022/07/04 09:40:25;;;;;;;2.30;1.33;;;;;27.00;101945.00;;;;5048342;28;20210;-79
2022/07/04 09:42:53;;;;;;;2.33;1.20;;;;;27.00;101938.00;;;;5048741;28;20199;-80
2022/07/04 09:45:23;;;;;;;1.00;0.85;;;;;27.00;101941.00;;;;5048957;28;20227;-79
2022/07/04 09:47:54;;;;;;;1.13;0.90;;;;;26.90;101940.00;;;;5048360;28;20206;-80
2022/07/04 09:50:22;;;;;;;1.38;1.10;;;;;26.90;101947.00;;;;5048496;28;20183;-80
2022/07/04 09:52:52;;;;;;;3.15;1.00;;;;;26.80;101947.00;;;;5048345;28;20732;-79
2022/07/04 09:55:26;;;;;;;1.65;0.82;;;;;26.80;101944.00;;;;5048174;28;20322;-80
2022/07/04 09:57:56;;;;;;;1.15;0.80;;;;;26.80;101941.00;;;;5049373;28;20206;-80
2022/07/04 10:00:26;;;;;;;1.70;1.35;;;;;26.80;101942.00;;;;5048374;28;20195;-78
2022/07/04 10:02:55;;;;;;;3.05;1.13;;;;;26.70;101945.00;;;;5049107;28;20203;-80
2022/07/04 10:05:26;;;;;;;2.40;0.95;;;;;26.70;101943.00;;;;5048881;28;20223;-79
2022/07/04 10:07:56;;;;;;;3.13;1.13;;;;;26.70;101937.00;;;;5049550;28;20204;-80
2022/07/04 10:10:33;;;;;;;2.30;1.08;;;;;26.70;101930.00;;;;5049300;28;20200;-80
2022/07/04 10:13:03;;;;;;;2.60;1.20;;;;;26.70;101925.00;;;;5049006;28;20199;-80
2022/07/04 10:15:31;;;;;;;2.15;1.05;;;;;26.80;101923.00;;;;5048068;28;20712;-79
2022/07/04 10:17:58;;;;;;;5.53;1.77;;;;;26.90;101924.00;;;;5049079;28;20188;-79
2022/07/04 10:20:26;;;;;;;1.80;1.17;;;;;26.90;101923.00;;;;5049361;28;20290;-77
2022/07/04 10:22:54;;;;;;;2.97;1.27;;;;;26.90;101925.00;;;;5048898;28;20203;-79
2022/07/04 10:25:21;;;;;;;1.30;1.02;;;;;26.90;101928.00;;;;5064751;28;20719;-80
2022/07/04 10:27:51;;;;;;;2.28;1.17;;;;;27.00;101919.00;;;;5063604;28;20584;-78
2022/07/04 10:30:25;;;;;;;6.32;1.50;;;;;26.90;101927.00;;;;5055410;28;20221;-79
2022/07/04 10:32:54;;;;;;;0.90;0.80;;;;;27.00;101923.00;;;;5048790;28;20199;-79
2022/07/04 10:35:50;;;;;;;1.63;1.30;;;;;27.00;101926.00;;;;5047382;28;20215;-79
2022/07/04 10:38:19;;;;;;;4.15;1.90;;;;;27.20;101927.00;;;;5051185;28;20282;-78
2022/07/04 10:40:49;;;;;;;2.25;1.70;;;;;27.20;101916.00;;;;5048358;28;20206;-77
2022/07/04 10:43:53;;;;;;;2.03;0.98;;;;;27.20;101923.00;;;;5048108;28;20207;-78
2022/07/04 10:46:47;;;;;;;1.65;1.48;;;;;27.30;101918.00;;;;5028231;28;20232;-78
2022/07/04 10:49:20;;;;;;;2.72;1.20;;;;;27.40;101924.00;;;;5037187;28;20199;-78
2022/07/04 10:51:49;;;;;;;1.35;0.80;;;;;27.50;101922.00;;;;5039579;28;20211;-79
2022/07/04 10:54:18;;;;;;;0.88;0.70;;;;;27.60;101930.00;;;;5027191;28;20797;-78
2022/07/04 10:56:48;;;;;;;1.40;1.00;;;;;27.70;101929.00;;;;5027272;28;20207;-79
2022/07/04 10:59:19;;;;;;;1.10;0.95;;;;;27.70;101922.00;;;;5027329;28;20227;-79
2022/07/04 11:01:53;;;;;;;1.58;0.85;;;;;27.70;101923.00;;;;5028416;28;20200;-78
2022/07/04 11:04:49;;;;;;;1.20;0.90;;;;;27.70;101925.00;;;;5026732;28;20193;-78
2022/07/04 11:07:18;;;;;;;2.08;0.82;;;;;27.80;101937.00;;;;5027583;28;20206;-78
2022/07/04 11:09:47;;;;;;;1.58;0.80;;;;;27.80;101924.00;;;;5028065;28;20209;-78
2022/07/04 11:12:14;;;;;;;0.80;0.70;;;;;27.90;101927.00;;;;5039057;28;20214;-78
2022/07/04 11:14:43;;;;;;;3.05;1.00;;;;;27.90;101922.00;;;;5028567;28;20211;-78
2022/07/04 11:17:14;;;;;;;1.42;0.95;;;;;27.90;101921.00;;;;5038190;28;20193;-77
2022/07/04 11:19:43;;;;;;;1.77;1.25;;;;;28.10;101916.00;;;;5028829;28;20208;-78
2022/07/04 11:22:11;;;;;;;1.38;1.13;;;;;28.10;101918.00;;;;5028248;28;20196;-78
2022/07/04 11:24:39;;;;;;;1.70;0.98;;;;;28.20;101908.00;;;;5027526;28;20193;-78
2022/07/04 11:27:09;;;;;;;1.60;1.00;;;;;28.20;101922.00;;;;5027304;28;20235;-78
2022/07/04 11:29:36;;;;;;;1.00;0.60;;;;;28.20;101926.00;;;;5027765;28;20215;-78
2022/07/04 11:32:07;;;;;;;0.95;0.63;;;;;28.20;101918.00;;;;5032142;28;20744;-78
2022/07/04 11:34:36;;;;;;;0.63;0.50;;;;;28.20;101924.00;;;;5047092;28;20211;-78
2022/07/04 11:37:04;;;;;;;0.60;0.57;;;;;28.20;101917.00;;;;5035917;28;21044;-77
2022/07/04 11:39:31;;;;;;;1.40;1.02;;;;;28.30;101913.00;;;;5027519;28;20574;-78
2022/07/04 11:47:35;;;;;;;1.10;0.65;;;;;28.30;101908.00;;;;5027411;28;20258;-77
2022/07/04 11:50:06;;;;;;;1.63;0.68;;;;;28.40;101900.00;;;;5030713;28;20203;-80
2022/07/04 11:52:43;;;;;;;1.85;0.90;;;;;28.40;101891.00;;;;5040264;28;20201;-79
2022/07/04 11:55:13;;;;;;;0.98;0.57;;;;;28.60;101906.00;;;;5030496;28;20238;-79
2022/07/04 11:57:41;;;;;;;1.52;0.60;;;;;28.60;101902.00;;;;5033883;28;20223;-79
2022/07/04 12:00:11;;;;;;;0.60;0.50;;;;;28.60;101900.00;;;;5039209;28;20212;-78
2022/07/04 12:02:39;;;;;;;1.25;0.80;;;;;28.60;101905.00;;;;5036026;28;20202;-80
2022/07/04 12:05:09;;;;;;;0.60;0.50;;;;;28.60;101896.00;;;;5031425;28;20566;-79
2022/07/04 12:07:38;;;;;;;1.52;0.50;;;;;28.60;101899.00;;;;5031867;28;20196;-79
2022/07/04 12:10:12;;;;;;;1.13;0.90;;;;;28.60;101883.00;;;;5039796;28;20204;-79
2022/07/04 12:12:53;;;;;;;3.08;0.73;;;;;28.60;101885.00;;;;5040309;28;20212;-79
2022/07/04 12:15:21;;;;;;;1.20;0.70;;;;;28.70;101879.00;;;;5034537;28;20772;-80
2022/07/04 12:17:51;;;;;;;1.00;0.63;;;;;28.70;101887.00;;;;5038302;28;20615;-80
2022/07/04 12:20:21;;;;;;;0.93;0.60;;;;;28.70;101881.00;;;;5049060;28;20262;-78
2022/07/04 12:22:53;;;;;;;1.05;0.70;;;;;28.70;101877.00;;;;5046528;28;20223;-77
2022/07/04 12:25:26;;;;;;;0.70;0.47;;;;;28.70;101880.00;;;;5030591;28;20713;-78
2022/07/04 12:27:56;;;;;;;1.95;0.95;;;;;28.70;101876.00;;;;5032813;28;20204;-77
2022/07/04 12:30:24;;;;;;;1.73;0.75;;;;;28.80;101874.00;;;;5030199;28;20200;-77